createdAt,value
2019-04-30T00:00:30.384Z,22.17
2019-04-30T00:03:06.627Z,21.77
2019-04-30T00:05:35.346Z,23.70
2019-04-30T00:08:05.866Z,23.57
2019-04-30T00:10:39.637Z,22.85
2019-04-30T00:13:06.134Z,22.10
2019-04-30T00:15:35.731Z,23.62
2019-04-30T00:18:05.492Z,22.58
2019-04-30T00:20:38.472Z,22.50
2019-04-30T00:23:05.666Z,24.60
2019-04-30T00:25:35.174Z,25.87
2019-04-30T00:28:08.483Z,22.42
2019-04-30T00:30:39.242Z,21.87
2019-04-30T00:33:06.393Z,25.72
2019-04-30T00:35:35.676Z,25.80
2019-04-30T00:38:05.129Z,22.17
2019-04-30T00:40:35.156Z,26.35
2019-04-30T00:43:08.909Z,26.17
2019-04-30T00:45:35.484Z,23.87
2019-04-30T00:48:05.984Z,29.63
2019-04-30T00:50:37.251Z,25.82
2019-04-30T00:53:12.246Z,25.23
2019-04-30T00:55:38.139Z,23.60
2019-04-30T00:58:07.291Z,24.40
2019-04-30T01:00:45.487Z,26.55
2019-04-30T01:03:19.809Z,28.17
2019-04-30T01:05:48.843Z,24.70
2019-04-30T01:08:21.119Z,27.65
2019-04-30T01:10:48.743Z,27.32
2019-04-30T01:13:19.261Z,26.07
2019-04-30T01:15:52.284Z,22.20
2019-04-30T01:18:19.351Z,26.27
2019-04-30T01:20:48.716Z,23.75
2019-04-30T01:23:19.487Z,25.05
2019-04-30T01:25:51.366Z,25.27
2019-04-30T01:28:22.849Z,23.73
2019-04-30T01:30:53.860Z,26.55
2019-04-30T01:33:20.709Z,24.60
2019-04-30T01:35:49.862Z,26.15
2019-04-30T01:38:18.988Z,24.60
2019-04-30T01:40:51.013Z,26.40
2019-04-30T01:43:23.543Z,24.82
2019-04-30T01:45:49.268Z,24.20
2019-04-30T01:48:19.411Z,27.10
2019-04-30T01:50:48.893Z,25.23
2019-04-30T01:53:18.643Z,26.75
2019-04-30T01:56:05.093Z,27.73
2019-04-30T01:58:42.005Z,27.30
2019-04-30T02:01:16.135Z,26.33
2019-04-30T02:03:45.068Z,24.90
2019-04-30T02:06:14.130Z,26.15
2019-04-30T02:08:43.058Z,27.32
2019-04-30T02:11:12.130Z,26.37
2019-04-30T02:13:41.115Z,26.85
2019-04-30T02:16:10.058Z,26.48
2019-04-30T02:18:39.381Z,26.20
2019-04-30T02:21:08.974Z,25.75
2019-04-30T02:23:39.334Z,25.85
2019-04-30T02:26:08.619Z,24.90
2019-04-30T02:28:39.315Z,26.10
2019-04-30T02:31:09.321Z,29.98
2019-04-30T02:33:40.552Z,25.43
2019-04-30T02:36:31.556Z,25.52
2019-04-30T02:39:02.736Z,25.17
2019-04-30T02:41:31.012Z,27.07
2019-04-30T02:44:00.306Z,27.42
2019-04-30T02:46:32.304Z,28.67
2019-04-30T02:49:00.037Z,25.43
2019-04-30T02:51:30.033Z,27.02
2019-04-30T02:54:13.414Z,27.37
2019-04-30T02:56:44.329Z,26.07
2019-04-30T02:59:13.393Z,28.05
2019-04-30T03:01:42.421Z,26.23
2019-04-30T03:04:11.503Z,27.50
2019-04-30T03:06:40.710Z,24.65
2019-04-30T03:09:10.633Z,25.70
2019-04-30T03:11:40.685Z,27.62
2019-04-30T03:14:10.929Z,24.85
2019-04-30T03:16:52.748Z,24.40
2019-04-30T03:19:29.691Z,25.92
2019-04-30T03:22:02.411Z,24.18
2019-04-30T03:24:31.217Z,24.92
2019-04-30T03:27:00.112Z,25.10
2019-04-30T03:29:30.188Z,24.02
2019-04-30T03:32:02.606Z,25.92
2019-04-30T03:34:32.497Z,24.98
2019-04-30T03:37:02.083Z,28.05
2019-04-30T03:39:33.770Z,25.60
2019-04-30T03:42:02.056Z,24.35
2019-04-30T03:44:32.437Z,25.08
2019-04-30T03:47:01.718Z,24.47
2019-04-30T03:49:30.700Z,26.10
2019-04-30T03:52:00.086Z,23.85
2019-04-30T03:54:29.523Z,28.32
2019-04-30T03:57:00.906Z,23.22
2019-04-30T03:59:30.464Z,24.63
2019-04-30T04:02:24.294Z,27.70
2019-04-30T04:05:00.907Z,24.32
2019-04-30T04:07:53.137Z,25.70
2019-04-30T04:10:34.207Z,24.82
2019-04-30T04:13:03.170Z,26.42
2019-04-30T04:15:32.301Z,25.45
2019-04-30T04:18:01.320Z,23.83
2019-04-30T04:20:30.320Z,26.55
2019-04-30T04:22:59.853Z,25.00
2019-04-30T04:25:29.941Z,24.87
2019-04-30T04:28:00.431Z,27.58
2019-04-30T04:30:30.120Z,26.85
2019-04-30T04:32:59.947Z,25.37
2019-04-30T04:35:29.924Z,26.42
2019-04-30T04:38:00.428Z,26.45
2019-04-30T04:40:30.357Z,26.55
2019-04-30T04:43:00.329Z,27.32
2019-04-30T04:45:30.573Z,25.88
2019-04-30T04:48:00.278Z,25.45
2019-04-30T04:50:30.345Z,26.68
2019-04-30T04:53:20.005Z,26.02
2019-04-30T04:55:49.960Z,26.17
2019-04-30T04:58:21.467Z,25.30
2019-04-30T05:00:49.886Z,25.62
2019-04-30T05:03:36.489Z,24.70
2019-04-30T05:06:05.557Z,28.57
2019-04-30T05:08:34.682Z,26.52
2019-04-30T05:11:03.587Z,27.05
2019-04-30T05:13:34.709Z,28.83
2019-04-30T05:16:03.269Z,27.35
2019-04-30T05:18:32.225Z,29.92
2019-04-30T05:21:01.104Z,25.08
2019-04-30T05:23:30.019Z,27.40
2019-04-30T05:26:01.693Z,26.25
2019-04-30T05:28:30.683Z,22.85
2019-04-30T05:30:59.739Z,23.95
2019-04-30T05:33:28.769Z,30.65
2019-04-30T05:35:59.442Z,27.48
2019-04-30T05:38:31.098Z,36.60
2019-04-30T05:41:19.322Z,29.32
2019-04-30T05:43:48.843Z,29.65
2019-04-30T05:46:19.657Z,26.57
2019-04-30T05:48:49.590Z,29.55
2019-04-30T05:51:21.157Z,29.67
2019-04-30T05:53:49.475Z,45.20
2019-04-30T05:56:20.164Z,35.03
2019-04-30T05:58:49.541Z,34.85
2019-04-30T06:01:19.633Z,31.67
2019-04-30T06:03:49.376Z,36.25
2019-04-30T06:06:19.562Z,45.33
2019-04-30T06:09:04.649Z,40.75
2019-04-30T06:11:43.515Z,39.92
2019-04-30T06:14:23.037Z,42.95
2019-04-30T06:17:07.042Z,41.48
2019-04-30T06:19:36.269Z,37.65
2019-04-30T06:22:08.072Z,49.10
2019-04-30T06:24:36.506Z,39.10
2019-04-30T06:27:05.552Z,38.10
2019-04-30T06:29:34.609Z,37.60
2019-04-30T06:32:03.467Z,34.92
2019-04-30T06:34:32.582Z,33.23
2019-04-30T06:37:01.530Z,31.50
2019-04-30T06:39:30.538Z,31.45
2019-04-30T06:42:06.496Z,30.27
2019-04-30T06:44:37.499Z,31.70
2019-04-30T06:47:01.750Z,31.75
2019-04-30T06:49:30.690Z,40.23
2019-04-30T06:51:59.612Z,33.45
2019-04-30T06:54:28.804Z,38.53
2019-04-30T06:56:59.567Z,42.58
2019-04-30T06:59:29.936Z,37.35
2019-04-30T07:01:59.067Z,39.60
2019-04-30T07:04:29.319Z,37.78
2019-04-30T07:09:58.193Z,38.45
2019-04-30T07:12:45.431Z,42.17
2019-04-30T07:15:14.445Z,43.05
2019-04-30T07:17:43.468Z,39.35
2019-04-30T07:20:12.437Z,39.58
2019-04-30T07:22:49.808Z,39.15
2019-04-30T07:25:11.940Z,35.52
2019-04-30T07:27:40.870Z,34.15
2019-04-30T07:30:10.182Z,39.78
2019-04-30T07:32:39.190Z,40.28
2019-04-30T07:35:09.571Z,41.13
2019-04-30T07:37:39.280Z,48.48
2019-04-30T07:40:09.274Z,44.45
2019-04-30T07:42:44.693Z,41.75
2019-04-30T07:45:09.683Z,39.50
2019-04-30T07:47:39.688Z,44.60
2019-04-30T07:50:10.747Z,36.38
2019-04-30T07:52:57.735Z,40.85
2019-04-30T07:55:09.950Z,36.53
2019-04-30T07:57:40.393Z,37.75
2019-04-30T08:00:09.902Z,33.98
2019-04-30T08:02:43.873Z,31.87
2019-04-30T08:05:21.945Z,31.25
2019-04-30T08:07:51.026Z,29.15
2019-04-30T08:10:20.009Z,29.10
2019-04-30T08:12:50.508Z,27.40
2019-04-30T08:15:19.997Z,33.80
2019-04-30T08:18:01.812Z,30.57
2019-04-30T08:20:19.961Z,27.02
2019-04-30T08:22:49.512Z,29.80
2019-04-30T08:25:21.921Z,31.93
2019-04-30T08:27:50.183Z,34.03
2019-04-30T08:30:26.169Z,32.53
2019-04-30T08:32:50.074Z,27.98
2019-04-30T08:35:19.733Z,33.30
2019-04-30T08:37:49.823Z,33.00
2019-04-30T08:40:19.528Z,33.10
2019-04-30T08:42:49.537Z,32.40
2019-04-30T08:45:19.658Z,31.62
2019-04-30T08:47:49.468Z,30.92
2019-04-30T08:50:20.312Z,28.50
2019-04-30T08:52:49.980Z,27.02
2019-04-30T08:55:22.480Z,32.73
2019-04-30T08:57:50.697Z,34.05
2019-04-30T09:00:19.763Z,30.00
2019-04-30T09:02:49.301Z,29.72
2019-04-30T09:05:24.956Z,27.30
2019-04-30T09:07:53.971Z,34.15
2019-04-30T09:10:23.380Z,34.83
2019-04-30T09:12:52.269Z,27.77
2019-04-30T09:15:21.426Z,37.55
2019-04-30T09:18:00.764Z,39.85
2019-04-30T09:20:21.621Z,36.53
2019-04-30T09:22:50.484Z,37.67
2019-04-30T09:25:19.599Z,38.65
2019-04-30T09:27:48.876Z,42.43
2019-04-30T09:30:18.806Z,38.37
2019-04-30T09:32:49.963Z,39.05
2019-04-30T09:35:19.861Z,42.23
2019-04-30T09:37:58.797Z,39.30
2019-04-30T09:40:21.200Z,39.60
2019-04-30T09:42:50.170Z,36.50
2019-04-30T09:45:19.494Z,37.33
2019-04-30T09:47:50.400Z,34.35
2019-04-30T09:50:19.064Z,34.80
2019-04-30T09:52:49.678Z,39.03
2019-04-30T09:55:19.339Z,40.78
2019-04-30T09:57:48.914Z,49.15
2019-04-30T10:00:19.379Z,43.45
2019-04-30T10:02:48.944Z,40.43
2019-04-30T10:05:20.456Z,40.37
2019-04-30T10:07:49.605Z,42.48
2019-04-30T10:10:20.830Z,41.25
2019-04-30T10:12:49.663Z,39.70
2019-04-30T10:15:31.908Z,40.28
2019-04-30T10:18:00.717Z,41.15
2019-04-30T10:20:40.601Z,43.40
2019-04-30T10:23:09.652Z,39.08
2019-04-30T10:25:38.752Z,37.48
2019-04-30T10:28:09.779Z,39.08
2019-04-30T10:30:38.659Z,36.48
2019-04-30T10:33:09.828Z,45.10
2019-04-30T10:35:38.685Z,39.00
2019-04-30T10:38:09.677Z,43.30
2019-04-30T10:40:39.108Z,48.63
2019-04-30T10:43:08.857Z,40.85
2019-04-30T10:45:38.832Z,47.00
2019-04-30T10:48:07.820Z,53.70
2019-04-30T10:50:36.818Z,45.75
2019-04-30T10:53:05.715Z,40.08
2019-04-30T10:55:34.800Z,44.75
2019-04-30T10:58:03.745Z,111.17
2019-04-30T11:00:40.230Z,185.05
2019-04-30T11:03:19.544Z,137.77
2019-04-30T11:05:41.245Z,104.58
2019-04-30T11:10:39.888Z,92.80
2019-04-30T11:13:08.915Z,61.05
2019-04-30T11:15:39.452Z,50.20
2019-04-30T11:18:08.864Z,48.40
2019-04-30T11:20:39.746Z,37.40
2019-04-30T11:23:14.641Z,37.42
2019-04-30T11:25:41.215Z,35.40
2019-04-30T11:28:10.768Z,36.03
2019-04-30T11:30:40.429Z,32.85
2019-04-30T11:33:09.930Z,35.95
2019-04-30T11:35:39.503Z,33.65
2019-04-30T11:38:08.577Z,70.77
2019-04-30T11:40:40.006Z,70.10
2019-04-30T11:43:08.265Z,51.95
2019-04-30T11:46:44.158Z,55.85
2019-04-30T11:49:13.166Z,55.83
2019-04-30T11:51:42.157Z,56.15
2019-04-30T11:54:11.134Z,50.20
2019-04-30T11:56:40.013Z,53.95
2019-04-30T11:59:08.899Z,52.43
2019-04-30T12:01:38.110Z,50.15
2019-04-30T12:04:07.109Z,50.20
2019-04-30T12:06:36.162Z,51.83
2019-04-30T12:09:35.932Z,44.33
2019-04-30T12:12:04.888Z,45.28
2019-04-30T12:14:33.982Z,45.65
2019-04-30T12:17:02.899Z,44.05
2019-04-30T12:19:31.771Z,46.90
2019-04-30T12:22:00.779Z,41.08
2019-04-30T12:24:30.444Z,39.83
2019-04-30T12:26:59.616Z,37.78
2019-04-30T12:29:29.234Z,39.45
2019-04-30T12:31:58.313Z,36.48
2019-04-30T12:34:27.237Z,37.33
2019-04-30T12:36:56.541Z,35.73
2019-04-30T12:39:25.347Z,33.50
2019-04-30T12:41:54.291Z,36.17
2019-04-30T12:44:24.376Z,33.33
2019-04-30T12:46:53.362Z,33.80
2019-04-30T12:49:22.359Z,32.08
2019-04-30T12:52:14.851Z,34.43
2019-04-30T12:54:48.642Z,30.40
2019-04-30T12:57:24.286Z,37.58
2019-04-30T12:59:53.086Z,29.27
2019-04-30T13:02:22.107Z,31.05
2019-04-30T13:04:51.128Z,30.43
2019-04-30T13:07:21.327Z,29.20
2019-04-30T13:09:51.414Z,30.55
2019-04-30T13:12:21.367Z,29.10
2019-04-30T13:14:54.378Z,28.73
2019-04-30T13:17:21.195Z,28.27
2019-04-30T13:19:50.247Z,25.45
2019-04-30T13:22:19.523Z,31.48
2019-04-30T13:24:49.907Z,24.95
2019-04-30T13:27:19.592Z,25.30
2019-04-30T13:30:01.816Z,26.45
2019-04-30T13:32:33.565Z,24.90
2019-04-30T13:35:02.503Z,24.10
2019-04-30T13:37:49.591Z,25.37
2019-04-30T13:40:34.683Z,21.77
2019-04-30T13:43:03.953Z,23.80
2019-04-30T13:45:33.637Z,25.15
2019-04-30T13:48:02.677Z,22.82
2019-04-30T13:50:31.613Z,21.73
2019-04-30T13:53:00.617Z,20.88
2019-04-30T13:55:42.493Z,22.02
2019-04-30T13:58:00.426Z,25.20
2019-04-30T14:00:30.715Z,19.12
2019-04-30T14:05:49.187Z,20.95
2019-04-30T14:08:33.801Z,20.68
2019-04-30T14:11:02.717Z,21.52
2019-04-30T14:13:39.780Z,20.95
2019-04-30T14:16:08.726Z,19.15
2019-04-30T14:18:39.057Z,21.93
2019-04-30T14:21:09.350Z,18.65
2019-04-30T14:26:09.352Z,21.40
2019-04-30T14:28:39.157Z,18.90
2019-04-30T14:31:08.198Z,16.30
2019-04-30T14:33:37.159Z,18.98
2019-04-30T14:36:05.973Z,17.98
2019-04-30T14:38:34.880Z,17.12
2019-04-30T14:41:04.378Z,19.12
2019-04-30T14:43:42.904Z,18.73
2019-04-30T14:46:30.937Z,16.07
2019-04-30T14:49:26.152Z,16.95
2019-04-30T14:51:55.944Z,16.48
2019-04-30T14:54:32.300Z,16.80
2019-04-30T14:57:18.455Z,16.67
2019-04-30T15:00:08.657Z,15.70
2019-04-30T15:02:41.032Z,18.27
2019-04-30T15:05:10.491Z,15.60
2019-04-30T15:07:39.840Z,15.32
2019-04-30T15:10:09.075Z,18.50
2019-04-30T15:12:38.041Z,15.70
2019-04-30T15:15:09.052Z,14.98
2019-04-30T15:17:39.200Z,13.65
2019-04-30T15:20:08.858Z,14.23
2019-04-30T15:22:39.975Z,15.80
2019-04-30T15:25:09.029Z,15.15
2019-04-30T15:27:45.159Z,16.82
2019-04-30T15:30:08.945Z,13.18
2019-04-30T15:32:40.685Z,14.50
2019-04-30T15:35:09.627Z,14.83
2019-04-30T15:37:40.293Z,15.03
2019-04-30T15:40:09.256Z,15.20
2019-04-30T15:42:41.693Z,12.90
2019-04-30T15:45:10.718Z,11.73
2019-04-30T15:47:39.680Z,12.68
2019-04-30T15:50:10.496Z,13.68
2019-04-30T15:52:39.306Z,12.98
2019-04-30T15:55:09.207Z,13.00
2019-04-30T15:57:59.275Z,13.32
2019-04-30T16:00:31.385Z,14.93
2019-04-30T16:05:54.562Z,11.43
2019-04-30T16:08:33.638Z,11.93
2019-04-30T16:11:11.814Z,11.85
2019-04-30T16:14:18.669Z,10.80
2019-04-30T16:17:00.069Z,13.25
2019-04-30T16:19:29.159Z,13.08
2019-04-30T16:21:58.308Z,12.63
2019-04-30T16:24:28.739Z,12.35
2019-04-30T16:26:59.369Z,12.25
2019-04-30T16:29:28.654Z,12.80
2019-04-30T16:31:59.169Z,11.60
2019-04-30T16:34:30.167Z,11.57
2019-04-30T16:36:59.123Z,11.83
2019-04-30T16:39:28.885Z,11.33
2019-04-30T16:41:59.191Z,12.53
2019-04-30T16:46:56.292Z,11.35
2019-04-30T16:49:25.315Z,11.68
2019-04-30T16:51:54.569Z,12.47
2019-04-30T16:54:25.200Z,12.10
2019-04-30T16:57:03.421Z,11.60
2019-04-30T16:59:33.825Z,12.35
2019-04-30T17:02:02.724Z,11.83
2019-04-30T17:04:40.914Z,11.38
2019-04-30T17:07:16.166Z,10.98
2019-04-30T17:10:04.137Z,11.33
2019-04-30T17:12:51.464Z,11.38
2019-04-30T17:15:23.567Z,11.43
2019-04-30T17:17:52.711Z,11.35
2019-04-30T17:20:21.641Z,12.25
2019-04-30T17:22:50.719Z,12.93
2019-04-30T17:25:19.928Z,10.10
2019-04-30T17:27:48.756Z,11.48
2019-04-30T17:30:19.317Z,11.12
2019-04-30T17:32:49.930Z,10.90
2019-04-30T17:35:19.289Z,11.50
2019-04-30T17:37:48.211Z,11.12
2019-04-30T17:40:19.120Z,11.10
2019-04-30T17:42:47.737Z,11.08
2019-04-30T17:45:16.811Z,13.80
2019-04-30T17:47:45.854Z,11.30
2019-04-30T17:50:14.818Z,10.68
2019-04-30T17:52:43.859Z,11.60
2019-04-30T17:55:12.826Z,10.48
2019-04-30T17:57:41.913Z,10.60
2019-04-30T18:00:19.187Z,11.40
2019-04-30T18:02:43.326Z,10.88
2019-04-30T18:05:12.352Z,12.00
2019-04-30T18:07:41.365Z,10.85
2019-04-30T18:10:12.180Z,10.80
2019-04-30T18:12:41.028Z,10.13
2019-04-30T18:15:14.110Z,10.00
2019-04-30T18:17:44.742Z,9.83
2019-04-30T18:20:29.228Z,11.05
2019-04-30T18:23:05.757Z,10.08
2019-04-30T18:25:42.028Z,11.08
2019-04-30T18:28:11.003Z,11.15
2019-04-30T18:30:41.168Z,11.22
2019-04-30T18:33:10.087Z,11.28
2019-04-30T18:35:39.016Z,11.40
2019-04-30T18:38:09.830Z,11.75
2019-04-30T18:40:39.772Z,12.00
2019-04-30T18:43:09.110Z,11.25
2019-04-30T18:45:39.594Z,14.07
2019-04-30T18:48:09.690Z,10.63
2019-04-30T18:53:13.149Z,10.85
2019-04-30T18:55:42.117Z,11.65
2019-04-30T18:58:11.122Z,11.43
2019-04-30T19:00:41.956Z,10.63
2019-04-30T19:03:11.211Z,9.68
2019-04-30T19:05:41.666Z,12.00
2019-04-30T19:08:16.875Z,10.90
2019-04-30T19:11:03.651Z,11.30
2019-04-30T19:13:42.676Z,11.63
2019-04-30T19:16:25.667Z,11.15
2019-04-30T19:19:01.034Z,12.25
2019-04-30T19:21:30.350Z,12.50
2019-04-30T19:23:59.270Z,10.38
2019-04-30T19:26:29.309Z,12.35
2019-04-30T19:31:27.067Z,12.18
2019-04-30T19:33:55.997Z,12.23
2019-04-30T19:36:35.033Z,11.70
2019-04-30T19:38:55.748Z,10.88
2019-04-30T19:41:24.858Z,11.08
2019-04-30T19:43:53.882Z,12.58
2019-04-30T19:46:22.750Z,12.10
2019-04-30T19:48:51.755Z,11.38
2019-04-30T19:51:20.795Z,13.08
2019-04-30T19:53:49.754Z,13.10
2019-04-30T19:56:20.593Z,11.30
2019-04-30T19:59:01.581Z,11.90
2019-04-30T20:01:20.120Z,12.20
2019-04-30T20:03:49.388Z,12.13
2019-04-30T20:06:19.150Z,11.05
2019-04-30T20:08:48.285Z,13.08
2019-04-30T20:11:17.393Z,12.93
2019-04-30T20:13:46.303Z,12.45
2019-04-30T20:16:15.297Z,13.58
2019-04-30T20:18:44.565Z,13.18
2019-04-30T20:21:26.237Z,12.50
2019-04-30T20:23:48.233Z,12.60
2019-04-30T20:26:17.233Z,12.68
2019-04-30T20:28:46.155Z,11.10
2019-04-30T20:31:15.117Z,12.28
2019-04-30T20:33:44.032Z,11.28
2019-04-30T20:36:12.975Z,14.50
2019-04-30T20:39:00.994Z,12.88
2019-04-30T20:41:30.874Z,13.05
2019-04-30T20:43:59.885Z,12.15
2019-04-30T20:46:32.617Z,11.12
2019-04-30T20:48:59.558Z,12.43
2019-04-30T20:51:29.056Z,11.20
2019-04-30T20:53:59.198Z,13.38
2019-04-30T20:56:29.119Z,11.97
2019-04-30T20:59:04.140Z,12.78
2019-04-30T21:01:29.643Z,11.85
2019-04-30T21:03:58.566Z,11.63
2019-04-30T21:06:29.744Z,11.22
2019-04-30T21:08:58.625Z,11.80
2019-04-30T21:11:27.582Z,10.80
2019-04-30T21:13:56.488Z,12.03
2019-04-30T21:16:25.581Z,13.62
2019-04-30T21:18:54.516Z,12.45
2019-04-30T21:21:23.528Z,12.98
2019-04-30T21:23:52.953Z,11.63
2019-04-30T21:26:22.188Z,13.10
2019-04-30T21:28:51.353Z,12.78
2019-04-30T21:31:41.956Z,10.53
2019-04-30T21:34:19.674Z,11.97
2019-04-30T21:36:49.642Z,10.23
2019-04-30T21:39:20.144Z,12.00
2019-04-30T21:41:49.519Z,13.15
2019-04-30T21:44:18.493Z,12.90
2019-04-30T21:46:47.389Z,11.73
2019-04-30T21:49:16.278Z,12.65
2019-04-30T21:51:45.061Z,13.00
2019-04-30T21:54:14.155Z,12.85
2019-04-30T21:56:43.017Z,12.80
2019-04-30T21:59:23.722Z,13.13
2019-04-30T22:01:43.120Z,11.35
2019-04-30T22:04:12.090Z,11.67
2019-04-30T22:06:41.090Z,11.73
2019-04-30T22:09:10.475Z,11.53
2019-04-30T22:11:39.609Z,12.07
2019-04-30T22:14:08.793Z,10.80
2019-04-30T22:16:39.802Z,13.60
2019-04-30T22:19:09.168Z,11.85
2019-04-30T22:21:39.645Z,11.93
2019-04-30T22:24:08.809Z,10.23
2019-04-30T22:26:37.737Z,12.88
2019-04-30T22:29:06.950Z,11.97
2019-04-30T22:31:35.886Z,11.95
2019-04-30T22:34:04.919Z,12.37
2019-04-30T22:36:51.623Z,14.73
2019-04-30T22:39:39.410Z,12.47
2019-04-30T22:42:40.296Z,11.90
2019-04-30T22:45:31.964Z,13.50
2019-04-30T22:48:00.852Z,13.43
2019-04-30T22:50:29.832Z,12.43
2019-04-30T22:52:58.796Z,12.25
2019-04-30T22:55:27.771Z,12.53
2019-04-30T22:57:56.901Z,13.62
2019-04-30T23:00:45.639Z,12.85
2019-04-30T23:03:30.468Z,12.20
2019-04-30T23:05:59.657Z,13.90
2019-04-30T23:08:28.446Z,11.65
2019-04-30T23:10:57.422Z,11.30
2019-04-30T23:13:26.431Z,11.88
2019-04-30T23:15:55.459Z,11.38
2019-04-30T23:18:24.521Z,11.93
2019-04-30T23:20:53.356Z,11.60
2019-04-30T23:23:22.840Z,11.50
2019-04-30T23:25:51.957Z,12.55
2019-04-30T23:28:20.852Z,11.55
2019-04-30T23:30:49.794Z,12.07
2019-04-30T23:33:18.721Z,12.35
2019-04-30T23:35:47.637Z,13.08
2019-04-30T23:38:16.656Z,10.93
2019-04-30T23:40:50.230Z,12.63
2019-04-30T23:43:19.119Z,11.22
2019-04-30T23:45:48.248Z,12.45
2019-04-30T23:48:17.296Z,11.45
2019-04-30T23:50:46.541Z,11.80
2019-04-30T23:53:15.614Z,11.95
2019-04-30T23:55:44.569Z,11.22
2019-04-30T23:58:13.608Z,11.70
